Time;durP1;ratioP1;P1;durP2;ratioP2;P2;SDS_P1;SDS_P2;PMS_P1;PMS_P2;Temp;Humidity;BMP_temperature;BMP_pressure;BME280_temperature;BME280_humidity;BME280_pressure;Samples;Min_cycle;Max_cycle;Signal;HPM_P1;HPM_P2
2021/12/23 00:02:21;;;;;;;4.15;3.95;;;;;;;-1.93;85.21;101327.84;4351065;32;20104;-75
2021/12/23 00:04:46;;;;;;;2.55;2.45;;;;;;;-2.01;84.96;101300.31;4338496;32;20068;-75
2021/12/23 00:07:11;;;;;;;3.45;3.35;;;;;;;-1.83;84.81;101309.91;4353957;32;20062;-73
2021/12/23 00:12:11;;;;;;;3.78;3.65;;;;;;;-1.87;84.54;101307.31;4350192;32;20062;-74
2021/12/23 00:14:38;;;;;;;2.95;2.75;;;;;;;-1.89;84.91;101314.16;4348711;32;20080;-73
2021/12/23 00:17:20;;;;;;;2.30;2.20;;;;;;;-2.39;84.97;101232.28;4355628;32;20082;-75
2021/12/23 00:25:13;;;;;;;3.80;3.67;;;;;;;-1.82;84.12;101300.50;4349881;32;20105;-75
2021/12/23 00:27:39;;;;;;;2.15;2.05;;;;;;;-1.77;84.85;101298.81;4347497;32;20116;-73
2021/12/23 00:30:07;;;;;;;2.30;2.20;;;;;;;-1.80;84.05;101288.53;4349817;32;20164;-73
2021/12/23 00:32:32;;;;;;;2.20;2.10;;;;;;;-1.78;83.89;101294.53;4350985;32;20465;-73
2021/12/23 00:34:58;;;;;;;2.80;2.60;;;;;;;-2.08;84.26;101223.13;4353504;32;20212;-75
2021/12/23 00:37:23;;;;;;;3.80;3.65;;;;;;;-2.45;84.13;101143.13;4349396;32;20342;-75
2021/12/23 00:39:49;;;;;;;2.22;2.12;;;;;;;-1.96;82.88;101206.94;4354802;32;20097;-73
2021/12/23 00:42:14;;;;;;;4.60;4.35;;;;;;;-1.69;83.54;101252.56;4355445;32;20088;-74
2021/12/23 00:44:45;;;;;;;2.05;1.95;;;;;;;-1.64;83.69;101256.91;4354909;32;20933;-74
2021/12/23 00:47:10;;;;;;;3.15;3.05;;;;;;;-1.71;83.78;101251.69;4352460;32;20069;-74
2021/12/23 00:49:35;;;;;;;2.50;2.40;;;;;;;-1.63;83.71;101263.75;4350677;32;20521;-74
2021/12/23 00:52:03;;;;;;;2.65;2.55;;;;;;;-1.62;83.92;101259.50;4360986;32;20077;-74
2021/12/23 00:54:28;;;;;;;2.10;2.00;;;;;;;-1.62;83.27;101256.91;4360137;32;20155;-74
2021/12/23 00:56:54;;;;;;;2.95;2.85;;;;;;;-1.63;83.28;101258.59;4358858;32;20061;-75
2021/12/23 00:59:19;;;;;;;3.60;3.50;;;;;;;-1.70;83.19;101250.87;4351190;32;20067;-74
2021/12/23 01:01:46;;;;;;;2.83;2.72;;;;;;;-2.11;83.34;101164.81;4349249;32;20895;-74
2021/12/23 01:04:12;;;;;;;4.05;3.85;;;;;;;-1.71;83.80;101231.13;4359062;32;20078;-73
2021/12/23 01:06:37;;;;;;;2.22;2.12;;;;;;;-1.80;83.78;101226.78;4342326;32;20085;-74
2021/12/23 01:09:02;;;;;;;2.28;2.17;;;;;;;-2.74;84.05;101061.53;4362058;32;20069;-74
2021/12/23 01:11:28;;;;;;;2.47;2.37;;;;;;;-2.01;84.08;101194.88;4352384;32;20678;-76
2021/12/23 01:14:03;;;;;;;2.28;2.17;;;;;;;-1.91;84.62;101211.25;4336458;32;20085;-73
2021/12/23 01:16:49;;;;;;;2.30;2.20;;;;;;;-1.87;84.40;101214.69;4337998;32;22336;-73
2021/12/23 01:19:16;;;;;;;2.00;1.90;;;;;;;-1.93;84.93;101207.78;4355349;32;20066;-71
2021/12/23 01:21:41;;;;;;;2.53;2.33;;;;;;;-1.99;85.42;101202.59;4353443;32;20074;-75
2021/12/23 01:24:09;;;;;;;3.05;2.83;;;;;;;-2.49;84.61;101124.22;4349819;32;20057;-73
2021/12/23 01:26:35;;;;;;;2.78;2.67;;;;;;;-2.17;85.12;101177.62;4349475;32;20092;-74
2021/12/23 01:29:00;;;;;;;2.53;2.42;;;;;;;-3.16;84.89;101018.38;4351397;32;20081;-73
2021/12/23 01:31:27;;;;;;;3.17;3.08;;;;;;;-2.02;84.74;101202.59;4348659;32;20975;-75
2021/12/23 01:33:52;;;;;;;2.05;1.95;;;;;;;-2.03;85.46;101188.84;4360824;32;20085;-74
2021/12/23 01:36:18;;;;;;;4.50;4.30;;;;;;;-1.98;84.99;101188.03;4353479;32;20070;-75
2021/12/23 01:38:43;;;;;;;2.10;2.00;;;;;;;-2.13;85.57;101166.50;4361429;32;20108;-74
2021/12/23 01:41:12;;;;;;;3.17;3.08;;;;;;;-2.58;84.68;101079.66;4352460;32;20066;-72
2021/12/23 01:43:37;;;;;;;2.42;2.33;;;;;;;-2.07;84.87;101155.41;4362624;32;20081;-73
2021/12/23 01:46:03;;;;;;;2.50;2.40;;;;;;;-1.93;84.81;101170.94;4361335;32;20069;-73
2021/12/23 01:48:28;;;;;;;2.72;2.62;;;;;;;-1.98;84.59;101172.59;4353977;32;20077;-76
2021/12/23 01:50:53;;;;;;;2.10;2.00;;;;;;;-2.02;84.96;101188.03;4357286;32;20073;-72
2021/12/23 01:53:19;;;;;;;3.78;3.65;;;;;;;-2.14;85.92;101174.22;4361226;32;20087;-70
2021/12/23 01:55:44;;;;;;;2.30;2.20;;;;;;;-1.99;85.12;101183.75;4365887;32;20074;-73
2021/12/23 01:58:10;;;;;;;2.62;2.53;;;;;;;-2.55;85.28;101105.34;4363918;32;20081;-73
2021/12/23 02:00:36;;;;;;;2.20;2.10;;;;;;;-2.04;85.39;101188.88;4351372;32;20143;-73
2021/12/23 02:03:02;;;;;;;2.58;2.47;;;;;;;-2.11;86.31;101172.50;4353828;32;20254;-75
2021/12/23 02:05:28;;;;;;;2.10;2.00;;;;;;;-2.04;86.25;101164.00;4351099;32;20073;-73
2021/12/23 02:07:53;;;;;;;2.10;2.00;;;;;;;-2.56;86.05;101071.09;4357951;32;20856;-71
2021/12/23 02:10:19;;;;;;;4.20;4.00;;;;;;;-2.09;86.57;101168.25;4353427;32;20084;-73
2021/12/23 02:12:45;;;;;;;2.15;2.05;;;;;;;-2.10;86.45;101171.69;4353956;32;20069;-75
2021/12/23 02:15:11;;;;;;;4.57;4.28;;;;;;;-2.36;86.36;101135.50;4358536;32;20198;-72
2021/12/23 02:17:37;;;;;;;2.47;2.37;;;;;;;-2.08;86.69;101162.25;4355602;32;20112;-72
2021/12/23 02:20:04;;;;;;;2.08;1.98;;;;;;;-2.12;87.10;101155.37;4366230;32;20099;-74
2021/12/23 02:22:29;;;;;;;2.25;2.15;;;;;;;-2.28;87.30;101127.84;4366607;32;20769;-73
2021/12/23 02:24:54;;;;;;;2.30;2.20;;;;;;;-2.31;86.57;101094.37;4351172;32;20132;-74
2021/12/23 02:27:20;;;;;;;3.78;3.65;;;;;;;-2.16;86.83;101107.34;4353136;32;20461;-74
2021/12/23 02:29:45;;;;;;;2.35;2.25;;;;;;;-1.94;86.20;101125.50;4348850;32;20074;-72
2021/12/23 02:32:10;;;;;;;3.50;3.40;;;;;;;-2.07;86.03;101081.69;4351210;32;20159;-72
2021/12/23 02:34:36;;;;;;;2.03;1.92;;;;;;;-1.80;85.59;101098.13;4350274;32;20065;-74
2021/12/23 02:37:01;;;;;;;2.33;2.22;;;;;;;-1.76;85.75;101092.16;4353781;32;20101;-75
2021/12/23 02:39:27;;;;;;;2.53;2.33;;;;;;;-1.78;86.37;101099.00;4370999;32;20076;-73
2021/12/23 02:41:52;;;;;;;2.10;2.00;;;;;;;-1.87;86.40;101099.78;4334984;32;20065;-73
2021/12/23 02:44:18;;;;;;;4.60;4.35;;;;;;;-1.77;85.69;101135.88;4353099;32;21029;-74
2021/12/23 02:46:43;;;;;;;2.25;2.15;;;;;;;-1.78;85.83;101163.31;4361205;32;20695;-74
2021/12/23 02:49:09;;;;;;;2.75;2.65;;;;;;;-1.79;85.67;101148.72;4348125;32;20761;-73
2021/12/23 02:51:34;;;;;;;2.72;2.53;;;;;;;-1.70;85.38;101138.50;4359390;32;20062;-73
2021/12/23 02:53:59;;;;;;;2.05;1.95;;;;;;;-1.69;86.02;101123.91;4361383;32;20080;-75
2021/12/23 02:56:25;;;;;;;2.83;2.72;;;;;;;-1.83;85.31;101101.53;4353539;32;20288;-75
2021/12/23 02:58:50;;;;;;;2.03;1.92;;;;;;;-2.13;85.38;101045.66;4357737;32;20851;-74
2021/12/23 03:01:16;;;;;;;3.78;3.65;;;;;;;-1.65;85.23;101111.06;4350450;32;20069;-74
2021/12/23 03:03:43;;;;;;;2.47;2.37;;;;;;;-1.69;85.90;101098.19;4351156;32;20154;-72
2021/12/23 03:06:09;;;;;;;2.58;2.47;;;;;;;-1.65;84.93;101113.62;4351401;32;21028;-74
2021/12/23 03:08:47;;;;;;;2.20;2.10;;;;;;;-1.67;85.08;101112.75;4340111;32;20061;-73
2021/12/23 03:11:15;;;;;;;2.75;2.65;;;;;;;-1.61;85.41;101102.50;4353609;32;20888;-72
2021/12/23 03:13:40;;;;;;;2.20;2.10;;;;;;;-1.65;85.96;101093.03;4349306;32;20222;-74
2021/12/23 03:16:06;;;;;;;3.45;3.28;;;;;;;-1.65;85.34;101095.63;4338652;32;20690;-73
2021/12/23 03:18:31;;;;;;;2.72;2.62;;;;;;;-1.79;85.90;101076.69;4372090;32;20112;-74
2021/12/23 03:20:57;;;;;;;2.65;2.55;;;;;;;-1.62;85.70;101095.66;4365174;32;20464;-74
2021/12/23 03:23:22;;;;;;;3.83;3.67;;;;;;;-1.67;85.65;101099.91;4355999;32;20173;-74
2021/12/23 03:25:48;;;;;;;2.30;2.20;;;;;;;-2.26;85.87;100983.03;4352015;32;20077;-72
2021/12/23 03:28:13;;;;;;;4.28;4.07;;;;;;;-2.23;85.77;100998.47;4348985;32;20098;-73
2021/12/23 03:30:38;;;;;;;2.58;2.47;;;;;;;-1.76;86.25;101080.97;4354289;32;20061;-74
2021/12/23 03:33:04;;;;;;;2.20;2.10;;;;;;;-1.81;86.22;101070.69;4352423;32;20075;-74
2021/12/23 03:35:29;;;;;;;1.80;1.80;;;;;;;-1.84;86.30;101088.69;4354486;32;20076;-75
2021/12/23 03:37:54;;;;;;;2.28;2.17;;;;;;;-2.01;86.29;101070.56;4351399;32;20594;-73
2021/12/23 03:40:20;;;;;;;3.58;3.47;;;;;;;-1.98;87.35;101085.16;4360236;32;20081;-73
2021/12/23 03:42:45;;;;;;;2.08;1.98;;;;;;;-2.00;87.76;101082.59;4355152;32;20616;-73
2021/12/23 03:45:11;;;;;;;4.30;4.10;;;;;;;-1.96;87.52;101080.91;4356899;32;20101;-74
2021/12/23 03:47:36;;;;;;;2.25;2.15;;;;;;;-2.26;87.72;101024.16;4355121;32;20148;-74
2021/12/23 03:50:03;;;;;;;1.80;1.80;;;;;;;-2.42;87.70;101018.06;4344339;32;20120;-74
2021/12/23 03:52:30;;;;;;;2.53;2.42;;;;;;;-1.96;88.55;101092.06;4356156;32;20994;-72
2021/12/23 03:54:55;;;;;;;2.12;2.03;;;;;;;-2.30;88.22;101042.16;4363857;32;20184;-74
2021/12/23 03:57:21;;;;;;;4.57;4.28;;;;;;;-2.08;88.40;101069.69;4349619;32;20081;-72
2021/12/23 03:59:46;;;;;;;2.20;2.10;;;;;;;-1.99;87.96;101073.16;4367861;32;20082;-75
2021/12/23 04:02:12;;;;;;;3.97;3.80;;;;;;;-2.68;87.71;100950.25;4349108;32;20539;-73
2021/12/23 04:04:37;;;;;;;2.10;2.00;;;;;;;-1.88;88.22;101066.38;4336768;32;20074;-74
2021/12/23 04:07:02;;;;;;;3.33;3.12;;;;;;;-1.86;88.06;101060.37;4355171;32;20143;-74
2021/12/23 04:09:28;;;;;;;2.20;2.10;;;;;;;-1.83;87.55;101060.37;4354187;32;20073;-75
2021/12/23 04:11:53;;;;;;;2.62;2.53;;;;;;;-1.83;88.06;101055.22;4357620;32;20142;-75
2021/12/23 04:14:18;;;;;;;4.25;4.05;;;;;;;-1.89;87.64;101039.78;4355929;32;20078;-72
2021/12/23 04:16:44;;;;;;;2.67;2.58;;;;;;;-2.09;87.92;100983.09;4359114;32;20156;-72
2021/12/23 04:19:11;;;;;;;3.12;3.03;;;;;;;-1.84;87.99;101045.81;4361614;32;20129;-71
2021/12/23 04:21:36;;;;;;;3.22;2.92;;;;;;;-2.39;88.75;100976.09;4363712;32;20116;-77
2021/12/23 04:24:02;;;;;;;2.42;2.33;;;;;;;-3.27;88.99;100826.66;4342454;32;20192;-73
2021/12/23 04:26:27;;;;;;;3.17;3.08;;;;;;;-2.01;88.78;101032.00;4332057;32;20100;-73
2021/12/23 04:28:53;;;;;;;4.03;3.15;;;;;;;-2.01;88.82;101044.84;4353190;32;20061;-75
2021/12/23 04:31:19;;;;;;;3.55;3.45;;;;;;;-2.04;88.93;101056.00;4351377;32;20066;-73
2021/12/23 04:33:46;;;;;;;2.05;1.95;;;;;;;-2.07;89.59;101037.97;4347901;32;20080;-74
2021/12/23 04:36:11;;;;;;;3.95;3.75;;;;;;;-2.11;89.93;101027.66;4366198;32;20139;-76
2021/12/23 04:38:38;;;;;;;2.00;1.90;;;;;;;-1.97;89.94;101004.59;4357324;32;20914;-72
2021/12/23 04:41:03;;;;;;;2.40;2.30;;;;;;;-2.02;89.40;100992.56;4352875;32;20961;-72
2021/12/23 04:43:28;;;;;;;2.20;2.10;;;;;;;-1.95;88.93;100998.59;4355587;32;20088;-74
2021/12/23 04:45:54;;;;;;;2.50;2.40;;;;;;;-2.05;89.52;101023.41;4358517;32;20078;-76
2021/12/23 04:48:19;;;;;;;4.03;3.83;;;;;;;-1.99;89.86;101009.72;4352529;32;20737;-74
2021/12/23 04:50:44;;;;;;;2.40;2.30;;;;;;;-1.95;89.55;100993.44;4345342;32;20112;-73
2021/12/23 04:53:10;;;;;;;4.20;3.90;;;;;;;-2.14;89.59;100965.97;4356717;32;20500;-75
2021/12/23 04:55:35;;;;;;;2.00;1.90;;;;;;;-2.44;89.76;100914.41;4362971;32;20065;-75
2021/12/23 04:58:00;;;;;;;2.15;2.05;;;;;;;-2.06;90.34;100972.00;4354109;32;20093;-73
2021/12/23 05:00:26;;;;;;;3.28;3.17;;;;;;;-2.25;89.59;100946.19;4350223;32;20709;-74
2021/12/23 05:02:51;;;;;;;2.10;2.00;;;;;;;-2.11;89.82;100978.81;4356410;32;20074;-72
2021/12/23 05:05:17;;;;;;;4.55;4.35;;;;;;;-2.16;90.28;100990.81;4355504;32;20057;-74
2021/12/23 05:07:42;;;;;;;2.40;2.30;;;;;;;-2.08;90.49;100981.41;4354581;32;20233;-73
2021/12/23 05:10:08;;;;;;;2.58;2.47;;;;;;;-2.12;90.79;100984.81;4356146;32;20592;-72
2021/12/23 05:12:36;;;;;;;3.05;2.85;;;;;;;-2.23;91.16;100982.19;4354814;32;20062;-73
2021/12/23 05:15:02;;;;;;;2.10;2.00;;;;;;;-2.26;90.95;100975.31;4361679;32;20600;-73
2021/12/23 05:17:28;;;;;;;2.62;2.53;;;;;;;-2.31;91.12;100968.44;4354988;32;20073;-73
2021/12/23 05:19:53;;;;;;;3.40;3.17;;;;;;;-2.32;91.20;100966.75;4359309;32;20084;-75
2021/12/23 05:22:18;;;;;;;4.03;3.85;;;;;;;-2.34;91.79;100973.56;4350958;32;20981;-75
2021/12/23 05:24:44;;;;;;;6.65;2.50;;;;;;;-2.36;91.53;100965.00;4354617;32;20092;-72
2021/12/23 05:27:09;;;;;;;2.60;2.50;;;;;;;-2.29;91.73;100959.88;4352290;32;20059;-73
2021/12/23 05:29:34;;;;;;;2.10;2.00;;;;;;;-2.33;91.84;100976.13;4346135;32;20067;-73
2021/12/23 05:32:00;;;;;;;2.30;2.20;;;;;;;-2.59;92.65;100922.03;4356404;32;20104;-72
2021/12/23 05:34:25;;;;;;;2.58;2.47;;;;;;;-2.28;92.44;100976.19;4328944;32;20215;-74
2021/12/23 05:36:50;;;;;;;2.30;2.20;;;;;;;-2.28;92.51;100965.91;4357239;32;20132;-74
2021/12/23 05:39:16;;;;;;;3.97;3.78;;;;;;;-2.23;92.18;100988.19;4353836;32;20108;-73
2021/12/23 05:41:41;;;;;;;2.75;2.65;;;;;;;-2.23;92.28;100970.19;4356043;32;20074;-74
2021/12/23 05:44:06;;;;;;;2.75;2.65;;;;;;;-2.19;92.28;100957.34;4360884;32;20081;-73
2021/12/23 05:46:32;;;;;;;4.03;3.00;;;;;;;-2.17;92.48;100938.50;4359585;32;20574;-73
2021/12/23 05:48:57;;;;;;;2.20;2.10;;;;;;;-2.18;91.60;100929.09;4351720;32;20090;-75
2021/12/23 05:51:22;;;;;;;3.62;3.53;;;;;;;-2.09;91.60;100923.97;4353225;32;20105;-73
2021/12/23 05:53:48;;;;;;;2.40;2.20;;;;;;;-1.98;91.52;100920.56;4353568;32;20073;-76
2021/12/23 05:56:13;;;;;;;3.85;3.72;;;;;;;-2.49;91.40;100831.28;4355494;32;20953;-73
2021/12/23 05:58:38;;;;;;;2.25;2.15;;;;;;;-1.92;91.12;100912.91;4352207;32;20073;-73
2021/12/23 06:01:07;;;;;;;2.00;1.90;;;;;;;-1.86;91.41;100915.47;4361448;32;20081;-75
2021/12/23 06:03:32;;;;;;;2.20;2.10;;;;;;;-2.82;91.23;100760.97;4351788;32;20207;-73
2021/12/23 06:05:58;;;;;;;2.42;2.33;;;;;;;-1.87;90.58;100909.44;4355133;32;20501;-73
2021/12/23 06:08:23;;;;;;;4.60;4.22;;;;;;;-1.96;90.84;100877.72;4357526;32;20070;-73
2021/12/23 06:10:48;;;;;;;2.10;2.00;;;;;;;-1.92;91.09;100884.59;4358047;32;20070;-72
2021/12/23 06:13:14;;;;;;;4.15;3.95;;;;;;;-1.77;91.19;100905.19;4359168;32;20666;-74
2021/12/23 06:15:39;;;;;;;2.30;2.20;;;;;;;-1.68;90.83;100909.50;4357453;32;21628;-74
2021/12/23 06:18:07;;;;;;;2.12;2.03;;;;;;;-1.72;90.28;100888.06;4353651;32;20073;-74
2021/12/23 06:20:32;;;;;;;2.15;2.05;;;;;;;-1.70;90.19;100885.50;4354132;32;20149;-76
2021/12/23 06:22:58;;;;;;;2.60;2.50;;;;;;;-1.78;90.44;100895.75;4349426;32;20081;-74
2021/12/23 06:25:23;;;;;;;3.62;3.53;;;;;;;-1.68;90.83;100888.94;4353556;32;20074;-74
2021/12/23 06:27:48;;;;;;;2.20;2.10;;;;;;;-1.68;90.07;100888.94;4352607;32;20795;-73
2021/12/23 06:30:16;;;;;;;4.12;3.92;;;;;;;-1.68;90.52;100889.78;4355924;32;20070;-74
2021/12/23 06:32:42;;;;;;;2.20;2.10;;;;;;;-1.66;90.31;100895.78;4358005;32;20074;-75
2021/12/23 06:35:08;;;;;;;3.50;3.37;;;;;;;-2.12;91.40;100818.56;4355398;32;20903;-74
2021/12/23 06:37:33;;;;;;;2.50;2.40;;;;;;;-1.63;90.80;100894.91;4347773;32;20078;-74
2021/12/23 06:39:58;;;;;;;2.22;2.12;;;;;;;-1.61;91.11;100888.06;4354625;32;20098;-75
2021/12/23 06:42:27;;;;;;;2.50;2.35;;;;;;;-1.55;90.25;100882.91;4357580;32;20085;-75
2021/12/23 06:44:52;;;;;;;2.50;2.40;;;;;;;-1.91;90.22;100799.69;4357025;32;20101;-76
2021/12/23 06:47:17;;;;;;;4.10;3.90;;;;;;;-1.54;89.90;100876.03;4356177;32;20084;-75
2021/12/23 06:49:43;;;;;;;2.20;2.10;;;;;;;-1.48;90.80;100883.78;4352328;32;20061;-74
2021/12/23 06:52:08;;;;;;;3.58;3.37;;;;;;;-1.50;90.77;100888.94;4353581;32;20066;-74
2021/12/23 06:54:33;;;;;;;2.80;2.70;;;;;;;-1.51;90.28;100891.50;4353199;32;20104;-76
2021/12/23 06:56:59;;;;;;;3.05;2.95;;;;;;;-1.47;90.28;100896.62;4351443;32;20070;-74
2021/12/23 06:59:24;;;;;;;3.03;2.92;;;;;;;-1.79;90.48;100850.31;4352204;32;20194;-72
2021/12/23 07:01:50;;;;;;;2.15;2.05;;;;;;;-1.50;90.75;100901.81;4353651;32;20069;-73
2021/12/23 07:04:17;;;;;;;2.33;2.22;;;;;;;-1.50;91.03;100888.09;4356675;32;20065;-74
2021/12/23 07:06:59;;;;;;;2.30;2.20;;;;;;;-1.96;89.71;100800.59;4347864;32;20070;-73
2021/12/23 07:09:25;;;;;;;3.55;3.45;;;;;;;-1.42;90.36;100887.22;4355689;32;20918;-75
2021/12/23 07:11:50;;;;;;;2.30;2.20;;;;;;;-1.74;90.25;100842.62;4343078;32;20104;-75
2021/12/23 07:14:15;;;;;;;3.85;3.70;;;;;;;-1.36;90.35;100895.78;4349958;32;20655;-74
2021/12/23 07:16:42;;;;;;;2.22;2.12;;;;;;;-1.44;89.89;100904.38;4358244;32;20164;-73
2021/12/23 07:19:10;;;;;;;2.58;2.47;;;;;;;-1.44;90.01;100911.25;4360020;32;20124;-73
2021/12/23 07:21:35;;;;;;;3.12;3.03;;;;;;;-1.90;90.39;100823.72;4344585;32;20081;-73
2021/12/23 07:24:01;;;;;;;2.30;2.20;;;;;;;-1.58;90.59;100890.66;4349499;32;20556;-73
2021/12/23 07:26:26;;;;;;;3.25;3.15;;;;;;;-1.39;90.39;100891.50;4349019;32;20088;-74
2021/12/23 07:28:51;;;;;;;2.30;2.20;;;;;;;-1.84;90.14;100816.00;4351339;32;20167;-72
2021/12/23 07:31:17;;;;;;;3.83;3.67;;;;;;;-1.37;90.02;100881.22;4351701;32;20563;-74
2021/12/23 07:33:42;;;;;;;2.28;2.17;;;;;;;-1.51;90.66;100856.31;4359264;32;20065;-71
2021/12/23 07:36:07;;;;;;;4.85;4.62;;;;;;;-1.44;90.26;100868.34;4352298;32;20074;-72
2021/12/23 07:38:33;;;;;;;3.60;2.80;;;;;;;-1.42;90.82;100871.78;4354787;32;20587;-73
2021/12/23 07:40:59;;;;;;;2.30;2.20;;;;;;;-1.51;90.33;100842.59;4355195;32;20098;-72
2021/12/23 07:46:03;;;;;;;2.10;2.00;;;;;;;-1.89;89.86;100779.13;4368514;32;20061;-72
2021/12/23 07:48:28;;;;;;;2.85;2.75;;;;;;;-1.30;90.28;100891.50;4356295;32;20623;-75
2021/12/23 07:50:54;;;;;;;2.17;2.08;;;;;;;-1.36;89.49;100863.19;4353052;32;20062;-73
2021/12/23 07:53:19;;;;;;;4.18;3.97;;;;;;;-1.26;89.63;100877.78;4332060;32;20468;-72
2021/12/23 07:55:45;;;;;;;2.50;2.40;;;;;;;-1.24;89.45;100876.06;4333674;32;20075;-70
2021/12/23 07:58:10;;;;;;;2.58;2.47;;;;;;;-1.23;89.19;100866.59;4345394;32;20167;-72
2021/12/23 08:00:35;;;;;;;2.40;2.30;;;;;;;-1.22;89.12;100858.88;4352618;32;20081;-72
2021/12/23 08:03:01;;;;;;;3.40;3.10;;;;;;;-1.15;88.82;100869.19;4350179;32;20081;-71
2021/12/23 08:05:26;;;;;;;3.12;3.03;;;;;;;-1.06;89.02;100874.31;4351684;32;20688;-71
2021/12/23 08:07:54;;;;;;;2.53;2.42;;;;;;;-1.11;88.89;100869.16;4344706;32;20085;-72
2021/12/23 08:10:19;;;;;;;4.45;4.22;;;;;;;-1.19;89.46;100852.00;4352590;32;20074;-72
2021/12/23 08:12:45;;;;;;;7.53;3.58;;;;;;;-1.07;88.99;100877.75;4353720;32;20088;-72
2021/12/23 08:15:10;;;;;;;3.40;3.30;;;;;;;-1.04;88.56;100850.28;4358261;32;20557;-73
2021/12/23 08:17:36;;;;;;;2.30;2.20;;;;;;;-1.01;89.09;100850.25;4358302;32;20073;-71
2021/12/23 08:20:01;;;;;;;2.30;2.20;;;;;;;-1.09;88.44;100843.41;4363249;32;20544;-73
2021/12/23 08:22:27;;;;;;;2.60;2.50;;;;;;;-0.96;87.63;100857.09;4346855;32;20112;-75
2021/12/23 08:24:52;;;;;;;3.12;3.03;;;;;;;-1.08;88.12;100850.28;4347325;32;20096;-73
2021/12/23 08:27:20;;;;;;;3.78;3.65;;;;;;;-1.22;87.99;100822.84;4346624;32;20073;-70
2021/12/23 08:29:45;;;;;;;2.40;2.30;;;;;;;-0.89;87.94;100863.97;4352628;32;20069;-70
2021/12/23 08:32:10;;;;;;;2.60;2.50;;;;;;;-0.99;88.13;100845.09;4350498;32;20191;-71
2021/12/23 08:34:37;;;;;;;2.20;2.10;;;;;;;-0.81;87.57;100852.78;4352454;32;20070;-72
2021/12/23 08:37:06;;;;;;;2.95;2.85;;;;;;;-0.81;87.20;100847.63;4358661;32;20073;-70
2021/12/23 08:39:32;;;;;;;2.60;2.50;;;;;;;-0.79;87.06;100850.19;4356423;32;20557;-72
2021/12/23 08:41:57;;;;;;;2.60;2.50;;;;;;;-0.75;87.51;100848.47;4341768;32;20065;-71
2021/12/23 08:44:22;;;;;;;4.55;4.35;;;;;;;-0.70;86.60;100844.16;4356700;32;20456;-71
2021/12/23 08:46:48;;;;;;;2.45;2.35;;;;;;;-0.67;87.11;100839.84;4358149;32;20150;-72
2021/12/23 08:49:13;;;;;;;4.65;4.45;;;;;;;-1.07;86.56;100778.16;4352605;32;20674;-72
2021/12/23 08:51:41;;;;;;;2.40;2.30;;;;;;;-0.64;86.23;100836.41;4358628;32;20184;-70
2021/12/23 08:54:06;;;;;;;2.30;2.20;;;;;;;-0.65;86.05;100834.69;4360547;32;20078;-72
2021/12/23 08:56:31;;;;;;;2.40;2.30;;;;;;;-1.76;86.83;100643.63;4350451;32;20097;-72
2021/12/23 08:58:57;;;;;;;2.50;2.40;;;;;;;-0.70;87.25;100831.25;4349973;32;20541;-71
2021/12/23 09:01:22;;;;;;;4.28;4.07;;;;;;;-0.55;86.25;100836.38;4354407;32;20081;-72
2021/12/23 09:03:48;;;;;;;2.35;2.25;;;;;;;-0.58;86.28;100831.25;4338200;32;20155;-73
2021/12/23 09:06:13;;;;;;;3.42;3.33;;;;;;;-0.64;85.84;100818.38;4355096;32;20085;-73
2021/12/23 09:08:38;;;;;;;2.30;2.20;;;;;;;-0.41;85.72;100831.16;4354992;32;20128;-73
2021/12/23 09:11:04;;;;;;;2.40;2.30;;;;;;;-0.39;85.67;100831.16;4360831;32;20572;-73
2021/12/23 09:13:29;;;;;;;2.97;2.87;;;;;;;-0.67;85.17;100784.88;4355008;32;20069;-70
2021/12/23 09:15:55;;;;;;;2.55;2.45;;;;;;;-0.35;85.21;100838.00;4342379;32;20097;-72
2021/12/23 09:18:20;;;;;;;2.20;2.10;;;;;;;-0.41;85.00;100819.09;4356908;32;20352;-71
2021/12/23 09:20:46;;;;;;;2.45;2.35;;;;;;;-0.30;84.63;100826.81;4346665;32;20089;-74
2021/12/23 09:23:11;;;;;;;3.62;3.53;;;;;;;-0.15;84.73;100840.47;4342347;32;20199;-72
2021/12/23 09:25:38;;;;;;;2.30;2.20;;;;;;;-0.13;84.31;100834.44;4354884;32;20088;-73
2021/12/23 09:33:14;;;;;;;3.42;3.33;;;;;;;-0.29;83.73;100776.06;4360162;32;20196;-73
2021/12/23 09:35:40;;;;;;;2.15;2.05;;;;;;;0.03;83.21;100829.19;4354950;32;20065;-74
2021/12/23 09:38:08;;;;;;;3.50;3.30;;;;;;;-0.25;83.00;100767.44;4339977;32;20065;-71
2021/12/23 09:40:34;;;;;;;2.33;2.22;;;;;;;0.15;82.19;100819.63;4352001;32;20062;-73
2021/12/23 09:43:07;;;;;;;2.50;2.40;;;;;;;0.16;82.09;100802.41;4339661;32;20113;-71
2021/12/23 09:45:33;;;;;;;3.03;2.92;;;;;;;0.24;81.58;100798.06;4353572;32;20066;-72
2021/12/23 09:47:59;;;;;;;3.42;3.30;;;;;;;-0.16;81.37;100733.88;4356752;32;20147;-72
2021/12/23 09:50:26;;;;;;;3.97;3.80;;;;;;;0.10;81.65;100758.59;4350798;32;20082;-73
2021/12/23 09:52:52;;;;;;;2.80;2.70;;;;;;;0.18;81.47;100767.12;4355322;32;20092;-73
2021/12/23 09:55:20;;;;;;;3.67;3.58;;;;;;;0.38;80.27;100783.31;4352692;32;20082;-74
2021/12/23 09:57:46;;;;;;;2.53;2.42;;;;;;;0.43;80.35;100793.59;4355740;32;20095;-73
2021/12/23 10:00:12;;;;;;;3.28;3.17;;;;;;;-0.60;80.96;100611.31;4351192;32;20786;-72
2021/12/23 10:02:40;;;;;;;2.60;2.50;;;;;;;0.46;80.17;100785.84;4352530;32;20110;-73
2021/12/23 10:05:11;;;;;;;2.40;2.30;;;;;;;0.56;80.21;100794.31;4361642;32;20069;-72
2021/12/23 10:07:38;;;;;;;2.70;2.60;;;;;;;0.54;80.03;100785.72;4355636;32;20619;-73
2021/12/23 10:10:11;;;;;;;3.25;3.15;;;;;;;0.74;79.11;100801.91;4341940;32;20360;-73
2021/12/23 10:13:08;;;;;;;2.40;2.30;;;;;;;0.69;78.76;100803.66;4358555;32;20062;-73
2021/12/23 10:31:55;;;;;;;2.50;2.40;;;;;;;1.00;77.38;100730.97;4357992;32;20199;-72
2021/12/23 10:37:24;;;;;;;2.50;2.40;;;;;;;1.27;76.84;100732.37;4362892;32;20196;-73
2021/12/23 10:40:13;;;;;;;3.08;2.83;;;;;;;0.19;76.57;100546.91;4362668;32;20212;-73
2021/12/23 10:42:38;;;;;;;2.90;2.80;;;;;;;0.38;76.17;100578.50;4349758;32;20073;-73
2021/12/23 10:45:07;;;;;;;2.70;2.60;;;;;;;1.25;75.78;100705.69;4360091;32;20077;-74
2021/12/23 10:47:37;;;;;;;3.90;2.97;;;;;;;0.99;76.01;100667.28;4355365;32;20073;-73
2021/12/23 10:50:41;;;;;;;2.50;2.40;;;;;;;1.31;75.46;100708.19;4354342;32;20659;-72
2021/12/23 10:53:14;;;;;;;2.95;2.85;;;;;;;1.29;75.73;100685.81;4375482;32;20089;-73
2021/12/23 10:58:24;;;;;;;4.80;4.60;;;;;;;1.31;75.27;100674.56;4351456;32;20080;-71
2021/12/23 11:00:54;;;;;;;2.60;2.50;;;;;;;1.14;76.08;100695.50;4351851;32;20066;-74
2021/12/23 11:03:38;;;;;;;5.47;4.97;;;;;;;0.94;75.38;100613.09;4350984;32;20078;-75
2021/12/23 11:06:13;;;;;;;2.67;2.58;;;;;;;1.36;75.50;100677.09;4354699;32;20080;-73
2021/12/23 11:44:05;;;;;;;3.03;2.92;;;;;;;1.88;74.29;100623.66;4359643;32;20166;-73
2021/12/23 11:46:41;;;;;;;3.42;3.33;;;;;;;1.89;74.43;100623.66;4348557;32;20298;-72
2021/12/23 11:49:09;;;;;;;2.70;2.60;;;;;;;1.91;74.60;100627.06;4338918;32;20074;-71
2021/12/23 11:51:55;;;;;;;3.28;3.17;;;;;;;2.04;74.09;100626.84;4354039;32;20226;-75
2021/12/23 11:54:24;;;;;;;4.75;4.55;;;;;;;2.04;73.55;100624.25;4351981;32;20584;-74
2021/12/23 11:57:10;;;;;;;3.17;3.08;;;;;;;1.93;73.70;100594.25;4364241;32;20090;-75
2021/12/23 11:59:37;;;;;;;2.67;2.58;;;;;;;1.74;73.75;100565.25;4358917;32;20085;-74
2021/12/23 12:02:15;;;;;;;2.70;2.60;;;;;;;1.84;74.07;100562.50;4338738;32;20109;-74
2021/12/23 12:04:40;;;;;;;2.95;2.85;;;;;;;1.70;74.14;100529.97;4355995;32;20132;-74
2021/12/23 12:07:13;;;;;;;2.90;2.80;;;;;;;2.04;74.05;100580.25;4339152;32;20718;-72
2021/12/23 12:09:52;;;;;;;2.70;2.60;;;;;;;2.09;74.01;100594.81;4382449;32;20582;-75
2021/12/23 12:12:18;;;;;;;4.78;4.47;;;;;;;1.91;73.73;100564.97;4337997;32;20162;-73
2021/12/23 12:14:45;;;;;;;3.03;2.92;;;;;;;2.21;73.29;100583.38;4351229;32;20097;-73
2021/12/23 12:17:25;;;;;;;3.28;3.17;;;;;;;2.15;73.18;100570.56;4353958;32;20113;-74
2021/12/23 12:20:11;;;;;;;2.92;2.83;;;;;;;2.11;73.64;100555.97;4367986;32;20070;-75
2021/12/23 12:22:54;;;;;;;2.72;2.62;;;;;;;2.14;74.13;100564.50;4373077;32;20080;-74
2021/12/23 12:25:22;;;;;;;5.95;5.10;;;;;;;2.09;74.42;100563.75;4373731;32;20224;-73
2021/12/23 12:27:48;;;;;;;3.25;3.15;;;;;;;2.11;74.22;100556.81;4361438;32;20088;-74
2021/12/23 12:30:17;;;;;;;4.90;4.60;;;;;;;2.16;74.07;100548.94;4354415;32;20086;-73
2021/12/23 12:32:43;;;;;;;2.87;2.78;;;;;;;2.17;74.20;100546.34;4352367;32;21101;-74
2021/12/23 12:35:14;;;;;;;2.90;2.80;;;;;;;1.79;74.05;100474.63;4353110;32;20069;-72
2021/12/23 12:37:40;;;;;;;2.97;2.87;;;;;;;2.14;73.71;100524.81;4357503;32;20208;-74
2021/12/23 12:40:06;;;;;;;3.47;3.35;;;;;;;2.18;74.12;100521.28;4362367;32;20084;-73